sensor_id;sensor_type;location;lat;lon;timestamp;pressure;altitude;pressure_sealevel;temperature;humidity
35908;BME280;22003;50.320;8.054;2023-05-02T04:00:57;100032.69;;;8.75;100.00
35908;BME280;22003;50.320;8.054;2023-05-02T04:03:22;100049.97;;;8.66;100.00
35908;BME280;22003;50.320;8.054;2023-05-02T04:05:48;100030.56;;;8.67;100.00
35908;BME280;22003;50.320;8.054;2023-05-02T04:08:13;100053.53;;;8.79;100.00
35908;BME280;22003;50.320;8.054;2023-05-02T04:10:38;100046.44;;;9.19;100.00
35908;BME280;22003;50.320;8.054;2023-05-02T04:13:04;100052.03;;;9.15;100.00
35908;BME280;22003;50.320;8.054;2023-05-02T04:15:30;100063.47;;;9.28;100.00
35908;BME280;22003;50.320;8.054;2023-05-02T04:17:59;100066.66;;;9.33;100.00
35908;BME280;22003;50.320;8.054;2023-05-02T04:20:24;100068.44;;;9.33;100.00
35908;BME280;22003;50.320;8.054;2023-05-02T04:22:50;100074.91;;;9.29;100.00
35908;BME280;22003;50.320;8.054;2023-05-02T04:25:16;100070.81;;;9.50;100.00
35908;BME280;22003;50.320;8.054;2023-05-02T04:27:41;100054.47;;;9.43;100.00
35908;BME280;22003;50.320;8.054;2023-05-02T04:30:07;100082.97;;;9.52;100.00
35908;BME280;22003;50.320;8.054;2023-05-02T04:32:33;100076.09;;;9.75;100.00
35908;BME280;22003;50.320;8.054;2023-05-02T04:34:59;100078.84;;;9.74;100.00
35908;BME280;22003;50.320;8.054;2023-05-02T04:37:24;100078.19;;;9.45;100.00
35908;BME280;22003;50.320;8.054;2023-05-02T04:39:49;100095.03;;;9.57;100.00
35908;BME280;22003;50.320;8.054;2023-05-02T04:42:15;100102.00;;;9.70;100.00
35908;BME280;22003;50.320;8.054;2023-05-02T04:44:40;100096.50;;;9.86;100.00
35908;BME280;22003;50.320;8.054;2023-05-02T04:47:05;100087.31;;;9.79;100.00
35908;BME280;22003;50.320;8.054;2023-05-02T04:49:30;100088.06;;;9.94;100.00
35908;BME280;22003;50.320;8.054;2023-05-02T04:51:56;100110.47;;;9.88;100.00
35908;BME280;22003;50.320;8.054;2023-05-02T04:54:22;100109.13;;;9.95;100.00
35908;BME280;22003;50.320;8.054;2023-05-02T04:56:47;100116.72;;;9.87;100.00
35908;BME280;22003;50.320;8.054;2023-05-02T04:59:12;100118.19;;;10.17;100.00
35908;BME280;22003;50.320;8.054;2023-05-02T05:01:37;100116.09;;;10.22;100.00
35908;BME280;22003;50.320;8.054;2023-05-02T05:04:03;100110.47;;;10.14;100.00
35908;BME280;22003;50.320;8.054;2023-05-02T05:06:28;100126.34;;;10.14;100.00
35908;BME280;22003;50.320;8.054;2023-05-02T05:08:53;100135.97;;;10.15;100.00
35908;BME280;22003;50.320;8.054;2023-05-02T05:11:19;100139.28;;;10.31;100.00
35908;BME280;22003;50.320;8.054;2023-05-02T05:13:44;100137.59;;;10.17;100.00
35908;BME280;22003;50.320;8.054;2023-05-02T05:16:10;100141.50;;;10.12;100.00
35908;BME280;22003;50.320;8.054;2023-05-02T05:18:36;100146.81;;;10.24;100.00
35908;BME280;22003;50.320;8.054;2023-05-02T05:21:08;100150.19;;;10.39;100.00
35908;BME280;22003;50.320;8.054;2023-05-02T05:23:35;100121.06;;;10.26;100.00
35908;BME280;22003;50.320;8.054;2023-05-02T05:26:10;100147.09;;;10.32;100.00
35908;BME280;22003;50.320;8.054;2023-05-02T05:28:36;100143.13;;;10.64;100.00
35908;BME280;22003;50.320;8.054;2023-05-02T05:31:09;100154.91;;;10.60;100.00
35908;BME280;22003;50.320;8.054;2023-05-02T05:33:35;100155.13;;;10.56;100.00
35908;BME280;22003;50.320;8.054;2023-05-02T05:36:08;100152.19;;;10.85;100.00
35908;BME280;22003;50.320;8.054;2023-05-02T05:38:34;100147.44;;;10.77;100.00
35908;BME280;22003;50.320;8.054;2023-05-02T05:40:59;100151.41;;;10.72;100.00
35908;BME280;22003;50.320;8.054;2023-05-02T05:43:25;100160.28;;;10.71;100.00
35908;BME280;22003;50.320;8.054;2023-05-02T05:45:51;100167.81;;;10.64;100.00
35908;BME280;22003;50.320;8.054;2023-05-02T05:48:17;100175.66;;;10.66;100.00
35908;BME280;22003;50.320;8.054;2023-05-02T05:50:42;100159.25;;;10.97;100.00
35908;BME280;22003;50.320;8.054;2023-05-02T05:53:07;100171.78;;;10.82;100.00
35908;BME280;22003;50.320;8.054;2023-05-02T05:55:33;100176.53;;;10.66;100.00
35908;BME280;22003;50.320;8.054;2023-05-02T05:57:58;100169.09;;;10.58;100.00
35908;BME280;22003;50.320;8.054;2023-05-02T06:00:23;100158.44;;;10.47;100.00
35908;BME280;22003;50.320;8.054;2023-05-02T06:02:48;100182.88;;;10.64;100.00
35908;BME280;22003;50.320;8.054;2023-05-02T06:05:14;100175.66;;;11.02;100.00
35908;BME280;22003;50.320;8.054;2023-05-02T06:07:39;100183.00;;;11.23;100.00
35908;BME280;22003;50.320;8.054;2023-05-02T06:10:05;100192.66;;;11.00;99.87
35908;BME280;22003;50.320;8.054;2023-05-02T06:12:30;100191.00;;;11.10;99.75
35908;BME280;22003;50.320;8.054;2023-05-02T06:14:55;100188.31;;;11.23;99.21
35908;BME280;22003;50.320;8.054;2023-05-02T06:17:21;100196.81;;;10.91;99.96
35908;BME280;22003;50.320;8.054;2023-05-02T06:19:46;100169.44;;;10.91;99.41
35908;BME280;22003;50.320;8.054;2023-05-02T06:22:11;100196.88;;;11.02;99.51
35908;BME280;22003;50.320;8.054;2023-05-02T06:24:38;100209.81;;;11.07;100.00
35908;BME280;22003;50.320;8.054;2023-05-02T06:27:03;100208.06;;;11.19;98.15
35908;BME280;22003;50.320;8.054;2023-05-02T06:29:28;100212.06;;;11.24;98.16
35908;BME280;22003;50.320;8.054;2023-05-02T06:31:54;100213.22;;;10.96;98.17
35908;BME280;22003;50.320;8.054;2023-05-02T06:34:20;100220.41;;;10.57;100.00
35908;BME280;22003;50.320;8.054;2023-05-02T06:36:45;100204.00;;;10.52;100.00
35908;BME280;22003;50.320;8.054;2023-05-02T06:39:10;100235.94;;;10.88;100.00
35908;BME280;22003;50.320;8.054;2023-05-02T06:41:36;100232.69;;;10.58;100.00
35908;BME280;22003;50.320;8.054;2023-05-02T06:44:01;100250.09;;;10.37;100.00
35908;BME280;22003;50.320;8.054;2023-05-02T06:46:29;100245.28;;;10.17;100.00
35908;BME280;22003;50.320;8.054;2023-05-02T06:48:55;100248.91;;;10.41;100.00
35908;BME280;22003;50.320;8.054;2023-05-02T06:51:20;100250.91;;;10.76;100.00
35908;BME280;22003;50.320;8.054;2023-05-02T06:53:46;100256.09;;;10.65;100.00
35908;BME280;22003;50.320;8.054;2023-05-02T06:56:11;100235.31;;;10.71;100.00
35908;BME280;22003;50.320;8.054;2023-05-02T06:58:37;100262.44;;;10.88;98.64
35908;BME280;22003;50.320;8.054;2023-05-02T07:01:02;100254.84;;;10.83;98.54
35908;BME280;22003;50.320;8.054;2023-05-02T07:03:27;100270.81;;;10.81;98.36
35908;BME280;22003;50.320;8.054;2023-05-02T07:05:52;100271.47;;;10.85;97.70
35908;BME280;22003;50.320;8.054;2023-05-02T07:08:18;100279.31;;;10.74;97.28
35908;BME280;22003;50.320;8.054;2023-05-02T07:10:45;100278.38;;;10.75;97.69
35908;BME280;22003;50.320;8.054;2023-05-02T07:13:10;100293.84;;;10.68;97.93
35908;BME280;22003;50.320;8.054;2023-05-02T07:15:35;100285.88;;;10.81;96.64
35908;BME280;22003;50.320;8.054;2023-05-02T07:18:01;100285.16;;;10.79;97.11
35908;BME280;22003;50.320;8.054;2023-05-02T07:20:26;100295.44;;;10.83;96.55
35908;BME280;22003;50.320;8.054;2023-05-02T07:22:52;100290.66;;;10.76;96.36
35908;BME280;22003;50.320;8.054;2023-05-02T07:25:17;100294.16;;;10.64;96.53
35908;BME280;22003;50.320;8.054;2023-05-02T07:27:42;100295.31;;;10.60;98.38
35908;BME280;22003;50.320;8.054;2023-05-02T07:30:08;100310.38;;;10.84;97.15
35908;BME280;22003;50.320;8.054;2023-05-02T07:32:33;100291.09;;;10.57;97.97
35908;BME280;22003;50.320;8.054;2023-05-02T07:34:58;100311.19;;;11.10;97.99
35908;BME280;22003;50.320;8.054;2023-05-02T07:37:24;100298.94;;;10.58;97.92
35908;BME280;22003;50.320;8.054;2023-05-02T07:39:49;100313.13;;;10.70;95.97
35908;BME280;22003;50.320;8.054;2023-05-02T07:42:14;100312.06;;;10.60;98.04
35908;BME280;22003;50.320;8.054;2023-05-02T07:44:39;100315.25;;;10.78;99.76
35908;BME280;22003;50.320;8.054;2023-05-02T07:47:05;100308.78;;;11.31;96.89
35908;BME280;22003;50.320;8.054;2023-05-02T07:49:30;100317.00;;;11.52;94.07
35908;BME280;22003;50.320;8.054;2023-05-02T07:51:56;100322.22;;;11.78;94.90
35908;BME280;22003;50.320;8.054;2023-05-02T07:54:21;100330.59;;;11.48;93.61
35908;BME280;22003;50.320;8.054;2023-05-02T07:56:47;100322.06;;;11.92;92.12
35908;BME280;22003;50.320;8.054;2023-05-02T07:59:13;100328.66;;;11.62;93.87
35908;BME280;22003;50.320;8.054;2023-05-02T08:01:39;100324.25;;;11.74;91.71
35908;BME280;22003;50.320;8.054;2023-05-02T08:04:05;100305.66;;;12.22;90.22
35908;BME280;22003;50.320;8.054;2023-05-02T08:06:30;100320.94;;;12.07;89.34
35908;BME280;22003;50.320;8.054;2023-05-02T08:08:58;100328.00;;;11.72;90.84
35908;BME280;22003;50.320;8.054;2023-05-02T08:11:24;100319.28;;;12.18;88.26
35908;BME280;22003;50.320;8.054;2023-05-02T08:13:52;100331.03;;;11.78;89.87
35908;BME280;22003;50.320;8.054;2023-05-02T08:16:18;100331.28;;;12.34;90.66
35908;BME280;22003;50.320;8.054;2023-05-02T08:18:46;100323.81;;;12.39;90.44
35908;BME280;22003;50.320;8.054;2023-05-02T08:21:12;100333.16;;;12.67;86.68
35908;BME280;22003;50.320;8.054;2023-05-02T08:23:37;100336.56;;;11.99;88.74
35908;BME280;22003;50.320;8.054;2023-05-02T08:26:03;100333.63;;;12.50;87.85
35908;BME280;22003;50.320;8.054;2023-05-02T08:28:28;100346.41;;;11.86;88.39
35908;BME280;22003;50.320;8.054;2023-05-02T08:30:54;100314.53;;;12.10;89.71
35908;BME280;22003;50.320;8.054;2023-05-02T08:33:19;100347.00;;;12.49;88.38
35908;BME280;22003;50.320;8.054;2023-05-02T08:35:45;100345.47;;;12.11;88.57
35908;BME280;22003;50.320;8.054;2023-05-02T08:38:10;100345.03;;;12.04;88.58
35908;BME280;22003;50.320;8.054;2023-05-02T08:40:36;100348.00;;;11.76;89.60
35908;BME280;22003;50.320;8.054;2023-05-02T08:43:03;100351.50;;;11.76;91.10
35908;BME280;22003;50.320;8.054;2023-05-02T08:45:34;100350.72;;;11.63;91.80
35908;BME280;22003;50.320;8.054;2023-05-02T08:48:07;100342.38;;;11.56;91.44
35908;BME280;22003;50.320;8.054;2023-05-02T08:50:42;100332.81;;;11.54;90.00
35908;BME280;22003;50.320;8.054;2023-05-02T08:53:10;100352.06;;;12.40;90.54
35908;BME280;22003;50.320;8.054;2023-05-02T08:55:37;100350.50;;;12.49;87.80
35908;BME280;22003;50.320;8.054;2023-05-02T08:58:09;100352.28;;;12.73;87.80
35908;BME280;22003;50.320;8.054;2023-05-02T09:00:39;100362.28;;;12.69;85.07
35908;BME280;22003;50.320;8.054;2023-05-02T09:03:30;100357.75;;;13.05;84.14
35908;BME280;22003;50.320;8.054;2023-05-02T09:06:03;100343.22;;;13.09;83.17
35908;BME280;22003;50.320;8.054;2023-05-02T09:08:29;100360.00;;;12.98;83.18
35908;BME280;22003;50.320;8.054;2023-05-02T09:10:54;100362.94;;;12.95;84.31
35908;BME280;22003;50.320;8.054;2023-05-02T09:15:59;100363.56;;;13.21;81.51
35908;BME280;22003;50.320;8.054;2023-05-02T09:18:30;100359.00;;;14.42;79.47
35908;BME280;22003;50.320;8.054;2023-05-02T09:20:59;100345.34;;;13.71;79.46
35908;BME280;22003;50.320;8.054;2023-05-02T09:23:55;100371.41;;;14.32;81.33
35908;BME280;22003;50.320;8.054;2023-05-02T09:26:24;100357.03;;;13.91;81.41
35908;BME280;22003;50.320;8.054;2023-05-02T09:28:57;100356.25;;;13.68;80.16
35908;BME280;22003;50.320;8.054;2023-05-02T09:31:24;100357.50;;;14.91;74.70
35908;BME280;22003;50.320;8.054;2023-05-02T09:33:50;100337.97;;;15.21;74.17
35908;BME280;22003;50.320;8.054;2023-05-02T09:36:17;100354.31;;;15.27;72.46
35908;BME280;22003;50.320;8.054;2023-05-02T09:38:46;100359.75;;;15.26;72.17
35908;BME280;22003;50.320;8.054;2023-05-02T09:41:12;100369.28;;;15.59;72.04
35908;BME280;22003;50.320;8.054;2023-05-02T09:43:38;100358.75;;;15.57;73.41
35908;BME280;22003;50.320;8.054;2023-05-02T09:46:06;100344.09;;;14.18;75.66
35908;BME280;22003;50.320;8.054;2023-05-02T09:48:32;100371.03;;;15.29;76.89
35908;BME280;22003;50.320;8.054;2023-05-02T09:50:58;100356.59;;;16.21;74.82
35908;BME280;22003;50.320;8.054;2023-05-02T09:53:25;100361.66;;;15.95;71.39
35908;BME280;22003;50.320;8.054;2023-05-02T09:56:03;100366.31;;;16.41;70.41
35908;BME280;22003;50.320;8.054;2023-05-02T09:58:29;100358.50;;;14.48;75.27
35908;BME280;22003;50.320;8.054;2023-05-02T10:00:55;100374.78;;;13.58;79.31
35908;BME280;22003;50.320;8.054;2023-05-02T10:03:22;100375.41;;;14.05;77.05
35908;BME280;22003;50.320;8.054;2023-05-02T10:05:48;100354.50;;;13.89;77.36
35908;BME280;22003;50.320;8.054;2023-05-02T10:08:15;100363.97;;;14.14;78.59
35908;BME280;22003;50.320;8.054;2023-05-02T10:10:46;100368.25;;;14.26;77.38
35908;BME280;22003;50.320;8.054;2023-05-02T10:13:12;100363.22;;;14.44;79.25
35908;BME280;22003;50.320;8.054;2023-05-02T10:15:42;100333.88;;;14.23;77.63
35908;BME280;22003;50.320;8.054;2023-05-02T10:18:12;100350.66;;;14.67;77.33
35908;BME280;22003;50.320;8.054;2023-05-02T10:20:47;100322.97;;;15.29;76.35
35908;BME280;22003;50.320;8.054;2023-05-02T10:23:18;100317.91;;;15.96;72.58
35908;BME280;22003;50.320;8.054;2023-05-02T10:25:44;100333.81;;;16.26;70.95
35908;BME280;22003;50.320;8.054;2023-05-02T10:28:10;100331.84;;;16.09;67.48
35908;BME280;22003;50.320;8.054;2023-05-02T10:30:36;100334.94;;;16.33;72.18
35908;BME280;22003;50.320;8.054;2023-05-02T10:33:02;100354.25;;;15.58;75.57
35908;BME280;22003;50.320;8.054;2023-05-02T10:35:29;100360.34;;;14.36;72.96
35908;BME280;22003;50.320;8.054;2023-05-02T10:37:55;100365.78;;;14.14;75.25
35908;BME280;22003;50.320;8.054;2023-05-02T10:40:21;100375.34;;;13.84;76.46
35908;BME280;22003;50.320;8.054;2023-05-02T10:42:48;100369.69;;;13.66;76.36
35908;BME280;22003;50.320;8.054;2023-05-02T10:45:35;100357.53;;;14.49;75.96
35908;BME280;22003;50.320;8.054;2023-05-02T10:50:45;100338.78;;;14.60;75.35
35908;BME280;22003;50.320;8.054;2023-05-02T10:56:21;100353.88;;;15.22;74.33
35908;BME280;22003;50.320;8.054;2023-05-02T10:58:48;100352.22;;;16.49;74.83
35908;BME280;22003;50.320;8.054;2023-05-02T11:04:04;100355.88;;;16.57;77.29
35908;BME280;22003;50.320;8.054;2023-05-02T11:06:32;100297.59;;;15.54;71.00
35908;BME280;22003;50.320;8.054;2023-05-02T11:11:43;100348.66;;;17.24;67.59
35908;BME280;22003;50.320;8.054;2023-05-02T11:14:09;100360.38;;;17.51;72.48
35908;BME280;22003;50.320;8.054;2023-05-02T11:19:23;100319.09;;;16.79;69.13
35908;BME280;22003;50.320;8.054;2023-05-02T11:21:48;100322.25;;;16.55;69.14
35908;BME280;22003;50.320;8.054;2023-05-02T11:24:39;100349.56;;;16.00;70.11
35908;BME280;22003;50.320;8.054;2023-05-02T11:30:06;100346.59;;;16.52;69.71
35908;BME280;22003;50.320;8.054;2023-05-02T11:35:21;100362.06;;;16.77;71.86
35908;BME280;22003;50.320;8.054;2023-05-02T11:40:21;100350.94;;;15.75;70.44
35908;BME280;22003;50.320;8.054;2023-05-02T11:42:46;100368.84;;;14.62;71.03
35908;BME280;22003;50.320;8.054;2023-05-02T11:45:12;100327.91;;;15.34;73.42
35908;BME280;22003;50.320;8.054;2023-05-02T11:47:37;100364.66;;;14.27;73.90
35908;BME280;22003;50.320;8.054;2023-05-02T11:50:04;100370.75;;;14.71;73.28
35908;BME280;22003;50.320;8.054;2023-05-02T11:52:29;100385.81;;;15.34;73.43
35908;BME280;22003;50.320;8.054;2023-05-02T11:54:56;100364.88;;;13.92;73.19
35908;BME280;22003;50.320;8.054;2023-05-02T11:57:21;100393.66;;;14.42;72.61
35908;BME280;22003;50.320;8.054;2023-05-02T11:59:55;100337.88;;;13.97;71.97
35908;BME280;22003;50.320;8.054;2023-05-02T12:02:35;100376.69;;;15.05;73.22
35908;BME280;22003;50.320;8.054;2023-05-02T12:05:02;100378.78;;;15.02;72.28
35908;BME280;22003;50.320;8.054;2023-05-02T12:07:39;100384.81;;;15.75;70.37
35908;BME280;22003;50.320;8.054;2023-05-02T12:10:07;100391.06;;;14.93;68.00
35908;BME280;22003;50.320;8.054;2023-05-02T12:12:32;100403.34;;;14.11;73.17
35908;BME280;22003;50.320;8.054;2023-05-02T12:15:05;100401.81;;;13.97;73.12
35908;BME280;22003;50.320;8.054;2023-05-02T12:17:32;100405.50;;;14.49;71.74
35908;BME280;22003;50.320;8.054;2023-05-02T12:19:58;100351.94;;;13.44;71.81
35908;BME280;22003;50.320;8.054;2023-05-02T12:22:24;100389.03;;;13.68;71.94
35908;BME280;22003;50.320;8.054;2023-05-02T12:24:50;100402.34;;;13.80;74.22
35908;BME280;22003;50.320;8.054;2023-05-02T12:27:17;100412.47;;;13.97;72.14
35908;BME280;22003;50.320;8.054;2023-05-02T12:29:44;100405.97;;;13.79;72.11
35908;BME280;22003;50.320;8.054;2023-05-02T12:32:10;100400.47;;;14.03;71.11
35908;BME280;22003;50.320;8.054;2023-05-02T12:34:37;100418.16;;;14.68;70.04
35908;BME280;22003;50.320;8.054;2023-05-02T12:37:03;100393.81;;;15.34;69.86
35908;BME280;22003;50.320;8.054;2023-05-02T12:39:41;100391.16;;;14.82;70.08
35908;BME280;22003;50.320;8.054;2023-05-02T12:42:10;100414.88;;;15.27;68.86
35908;BME280;22003;50.320;8.054;2023-05-02T12:44:40;100434.50;;;15.87;67.83
35908;BME280;22003;50.320;8.054;2023-05-02T12:47:06;100418.59;;;15.86;67.56
35908;BME280;22003;50.320;8.054;2023-05-02T12:49:32;100422.09;;;15.46;67.09
35908;BME280;22003;50.320;8.054;2023-05-02T12:51:57;100424.75;;;15.76;66.60
35908;BME280;22003;50.320;8.054;2023-05-02T12:54:23;100425.22;;;15.51;64.07
35908;BME280;22003;50.320;8.054;2023-05-02T12:56:50;100423.69;;;15.58;65.75
35908;BME280;22003;50.320;8.054;2023-05-02T12:59:30;100434.22;;;15.50;67.26
35908;BME280;22003;50.320;8.054;2023-05-02T13:01:55;100439.44;;;15.00;67.78
35908;BME280;22003;50.320;8.054;2023-05-02T13:04:31;100427.72;;;15.12;67.63
35908;BME280;22003;50.320;8.054;2023-05-02T13:06:57;100420.97;;;15.48;67.79
35908;BME280;22003;50.320;8.054;2023-05-02T13:09:22;100429.84;;;14.76;64.46
35908;BME280;22003;50.320;8.054;2023-05-02T13:11:47;100453.09;;;15.98;68.24
35908;BME280;22003;50.320;8.054;2023-05-02T13:14:13;100441.06;;;15.73;66.43
35908;BME280;22003;50.320;8.054;2023-05-02T13:16:38;100448.47;;;16.20;67.01
35908;BME280;22003;50.320;8.054;2023-05-02T13:19:04;100450.50;;;15.16;67.87
35908;BME280;22003;50.320;8.054;2023-05-02T13:21:29;100409.94;;;16.32;67.23
35908;BME280;22003;50.320;8.054;2023-05-02T13:23:55;100428.50;;;16.43;63.68
35908;BME280;22003;50.320;8.054;2023-05-02T13:26:22;100448.09;;;15.44;64.47
35908;BME280;22003;50.320;8.054;2023-05-02T13:28:47;100449.81;;;15.24;68.72
35908;BME280;22003;50.320;8.054;2023-05-02T13:31:13;100438.53;;;14.90;67.62
35908;BME280;22003;50.320;8.054;2023-05-02T13:33:38;100454.03;;;15.26;65.77
35908;BME280;22003;50.320;8.054;2023-05-02T13:36:03;100441.28;;;14.99;67.76
35908;BME280;22003;50.320;8.054;2023-05-02T13:38:29;100455.16;;;15.03;67.72
35908;BME280;22003;50.320;8.054;2023-05-02T13:40:54;100434.78;;;14.60;68.66
35908;BME280;22003;50.320;8.054;2023-05-02T13:43:20;100460.78;;;15.00;66.39
35908;BME280;22003;50.320;8.054;2023-05-02T13:45:45;100437.03;;;14.97;70.55
35908;BME280;22003;50.320;8.054;2023-05-02T13:48:12;100406.06;;;15.15;65.44
35908;BME280;22003;50.320;8.054;2023-05-02T13:50:38;100439.44;;;15.30;64.65
35908;BME280;22003;50.320;8.054;2023-05-02T13:53:03;100443.34;;;15.88;64.36
35908;BME280;22003;50.320;8.054;2023-05-02T13:55:28;100466.66;;;16.16;64.21
35908;BME280;22003;50.320;8.054;2023-05-02T13:57:53;100472.47;;;15.60;64.08
35908;BME280;22003;50.320;8.054;2023-05-02T14:00:19;100451.53;;;14.83;64.48
35908;BME280;22003;50.320;8.054;2023-05-02T14:02:45;100484.06;;;15.70;64.76
35908;BME280;22003;50.320;8.054;2023-05-02T14:05:12;100470.34;;;15.54;63.83
35908;BME280;22003;50.320;8.054;2023-05-02T14:07:37;100477.56;;;15.94;64.95
35908;BME280;22003;50.320;8.054;2023-05-02T14:10:04;100485.28;;;15.97;62.74
35908;BME280;22003;50.320;8.054;2023-05-02T14:12:29;100458.69;;;15.03;64.71
35908;BME280;22003;50.320;8.054;2023-05-02T14:14:55;100494.00;;;15.38;68.05
35908;BME280;22003;50.320;8.054;2023-05-02T14:17:20;100481.31;;;15.30;63.76
35908;BME280;22003;50.320;8.054;2023-05-02T14:19:49;100467.84;;;15.93;61.71
35908;BME280;22003;50.320;8.054;2023-05-02T14:22:14;100439.13;;;15.54;63.80
35908;BME280;22003;50.320;8.054;2023-05-02T14:24:39;100482.06;;;15.11;65.55
35908;BME280;22003;50.320;8.054;2023-05-02T14:27:05;100477.53;;;14.70;63.15
35908;BME280;22003;50.320;8.054;2023-05-02T14:29:31;100479.34;;;13.83;63.78
35908;BME280;22003;50.320;8.054;2023-05-02T14:31:56;100414.91;;;14.00;61.91
35908;BME280;22003;50.320;8.054;2023-05-02T14:34:22;100490.41;;;14.21;63.07
35908;BME280;22003;50.320;8.054;2023-05-02T14:36:50;100459.31;;;14.54;61.86
35908;BME280;22003;50.320;8.054;2023-05-02T14:39:16;100473.38;;;13.23;66.95
35908;BME280;22003;50.320;8.054;2023-05-02T14:41:41;100419.28;;;13.11;67.09
35908;BME280;22003;50.320;8.054;2023-05-02T14:44:06;100476.59;;;14.27;65.10
35908;BME280;22003;50.320;8.054;2023-05-02T14:46:31;100467.19;;;14.01;64.31
35908;BME280;22003;50.320;8.054;2023-05-02T14:48:57;100491.66;;;14.06;62.87
35908;BME280;22003;50.320;8.054;2023-05-02T14:51:22;100500.03;;;13.90;63.73
35908;BME280;22003;50.320;8.054;2023-05-02T14:53:47;100493.53;;;14.26;63.49
35908;BME280;22003;50.320;8.054;2023-05-02T14:56:13;100492.59;;;14.60;63.72
35908;BME280;22003;50.320;8.054;2023-05-02T14:58:41;100498.53;;;15.16;64.83
35908;BME280;22003;50.320;8.054;2023-05-02T15:01:14;100493.16;;;14.74;64.76
35908;BME280;22003;50.320;8.054;2023-05-02T15:03:39;100495.19;;;14.82;64.17
35908;BME280;22003;50.320;8.054;2023-05-02T15:06:04;100507.84;;;14.14;65.75
35908;BME280;22003;50.320;8.054;2023-05-02T15:08:29;100514.66;;;14.07;67.81
35908;BME280;22003;50.320;8.054;2023-05-02T15:10:55;100511.63;;;14.12;65.85
35908;BME280;22003;50.320;8.054;2023-05-02T15:13:21;100504.56;;;14.33;66.13
35908;BME280;22003;50.320;8.054;2023-05-02T15:15:46;100468.28;;;13.87;65.50
35908;BME280;22003;50.320;8.054;2023-05-02T15:18:11;100508.16;;;13.66;65.48
35908;BME280;22003;50.320;8.054;2023-05-02T15:20:37;100482.25;;;13.57;66.85
35908;BME280;22003;50.320;8.054;2023-05-02T15:23:02;100460.34;;;12.85;66.73
35908;BME280;22003;50.320;8.054;2023-05-02T15:25:28;100522.38;;;12.97;68.29
35908;BME280;22003;50.320;8.054;2023-05-02T15:27:54;100517.69;;;13.00;68.53
35908;BME280;22003;50.320;8.054;2023-05-02T15:30:19;100510.34;;;13.15;69.74
35908;BME280;22003;50.320;8.054;2023-05-02T15:32:44;100519.41;;;13.12;67.62
35908;BME280;22003;50.320;8.054;2023-05-02T15:35:09;100515.28;;;13.08;66.78
35908;BME280;22003;50.320;8.054;2023-05-02T15:37:35;100502.28;;;12.92;65.15
35908;BME280;22003;50.320;8.054;2023-05-02T15:40:01;100504.34;;;13.24;63.21
35908;BME280;22003;50.320;8.054;2023-05-02T15:42:27;100493.25;;;13.64;63.93
35908;BME280;22003;50.320;8.054;2023-05-02T15:44:52;100473.06;;;13.61;63.09
35908;BME280;22003;50.320;8.054;2023-05-02T15:47:18;100486.59;;;13.69;65.21
35908;BME280;22003;50.320;8.054;2023-05-02T15:49:43;100493.97;;;13.99;63.05
35908;BME280;22003;50.320;8.054;2023-05-02T15:52:08;100453.94;;;13.67;62.46
35908;BME280;22003;50.320;8.054;2023-05-02T15:54:34;100480.78;;;13.87;63.17
35908;BME280;22003;50.320;8.054;2023-05-02T15:56:59;100482.22;;;13.24;64.13
35908;BME280;22003;50.320;8.054;2023-05-02T15:59:24;100506.06;;;13.59;62.49
35908;BME280;22003;50.320;8.054;2023-05-02T16:01:50;100512.13;;;13.94;64.67
35908;BME280;22003;50.320;8.054;2023-05-02T16:04:15;100509.84;;;13.56;62.92
35908;BME280;22003;50.320;8.054;2023-05-02T16:06:40;100508.59;;;13.38;63.45
35908;BME280;22003;50.320;8.054;2023-05-02T16:09:06;100512.34;;;13.24;65.60
35908;BME280;22003;50.320;8.054;2023-05-02T16:11:32;100510.53;;;13.36;65.10
35908;BME280;22003;50.320;8.054;2023-05-02T16:13:57;100521.63;;;12.83;68.46
35908;BME280;22003;50.320;8.054;2023-05-02T16:16:24;100519.09;;;12.58;68.17
35908;BME280;22003;50.320;8.054;2023-05-02T16:18:49;100525.53;;;12.66;68.39
35908;BME280;22003;50.320;8.054;2023-05-02T16:21:14;100523.03;;;13.11;66.72
35908;BME280;22003;50.320;8.054;2023-05-02T16:23:41;100517.81;;;13.56;66.50
35908;BME280;22003;50.320;8.054;2023-05-02T16:26:06;100510.19;;;14.62;63.29
35908;BME280;22003;50.320;8.054;2023-05-02T16:28:31;100515.31;;;15.07;61.33
35908;BME280;22003;50.320;8.054;2023-05-02T16:30:56;100515.59;;;15.76;59.76
35908;BME280;22003;50.320;8.054;2023-05-02T16:33:22;100487.06;;;16.36;55.85
35908;BME280;22003;50.320;8.054;2023-05-02T16:35:47;100461.00;;;16.00;55.99
35908;BME280;22003;50.320;8.054;2023-05-02T16:38:12;100511.53;;;14.57;60.00
35908;BME280;22003;50.320;8.054;2023-05-02T16:40:40;100526.91;;;13.87;61.29
35908;BME280;22003;50.320;8.054;2023-05-02T16:43:06;100526.25;;;13.28;63.17
35908;BME280;22003;50.320;8.054;2023-05-02T16:45:32;100539.78;;;13.25;64.07
35908;BME280;22003;50.320;8.054;2023-05-02T16:47:58;100533.63;;;14.25;62.85
35908;BME280;22003;50.320;8.054;2023-05-02T16:50:23;100476.50;;;14.18;61.35
35908;BME280;22003;50.320;8.054;2023-05-02T16:52:48;100522.00;;;15.64;58.76
35908;BME280;22003;50.320;8.054;2023-05-02T16:55:13;100478.97;;;15.37;55.83
35908;BME280;22003;50.320;8.054;2023-05-02T16:57:39;100519.38;;;15.53;54.97
35908;BME280;22003;50.320;8.054;2023-05-02T17:00:05;100497.38;;;14.45;57.45
35908;BME280;22003;50.320;8.054;2023-05-02T17:02:34;100527.38;;;13.59;60.10
35908;BME280;22003;50.320;8.054;2023-05-02T17:04:59;100527.44;;;12.88;61.81
35908;BME280;22003;50.320;8.054;2023-05-02T17:07:25;100535.75;;;12.36;63.72
35908;BME280;22003;50.320;8.054;2023-05-02T17:09:50;100544.44;;;12.38;66.46